sensor_id;sensor_type;location;lat;lon;timestamp;P1;durP1;ratioP1;P2;durP2;ratioP2
12625;SDS011;6378;42.684;23.372;2023-12-20T00:02:12;204.43;;;118.70;;
12625;SDS011;6378;42.684;23.372;2023-12-20T00:04:37;210.07;;;119.80;;
12625;SDS011;6378;42.684;23.372;2023-12-20T00:07:03;203.57;;;121.40;;
12625;SDS011;6378;42.684;23.372;2023-12-20T00:09:28;199.10;;;116.33;;
12625;SDS011;6378;42.684;23.372;2023-12-20T00:11:54;222.20;;;129.23;;
12625;SDS011;6378;42.684;23.372;2023-12-20T00:14:19;210.07;;;122.33;;
12625;SDS011;6378;42.684;23.372;2023-12-20T00:16:45;268.80;;;147.03;;
12625;SDS011;6378;42.684;23.372;2023-12-20T00:19:10;315.30;;;174.17;;
12625;SDS011;6378;42.684;23.372;2023-12-20T00:21:36;345.30;;;195.07;;
12625;SDS011;6378;42.684;23.372;2023-12-20T00:24:01;490.23;;;275.90;;
12625;SDS011;6378;42.684;23.372;2023-12-20T00:26:27;519.40;;;291.27;;
12625;SDS011;6378;42.684;23.372;2023-12-20T00:28:53;585.87;;;311.07;;
12625;SDS011;6378;42.684;23.372;2023-12-20T00:31:18;698.00;;;331.37;;
12625;SDS011;6378;42.684;23.372;2023-12-20T00:33:44;776.53;;;351.03;;
12625;SDS011;6378;42.684;23.372;2023-12-20T00:36:11;936.40;;;362.37;;
12625;SDS011;6378;42.684;23.372;2023-12-20T00:38:36;912.57;;;343.97;;
12625;SDS011;6378;42.684;23.372;2023-12-20T00:41:02;752.87;;;330.70;;
12625;SDS011;6378;42.684;23.372;2023-12-20T00:43:27;1198.57;;;386.10;;
12625;SDS011;6378;42.684;23.372;2023-12-20T00:45:53;724.77;;;305.87;;
12625;SDS011;6378;42.684;23.372;2023-12-20T00:48:18;728.70;;;302.10;;
12625;SDS011;6378;42.684;23.372;2023-12-20T00:50:44;535.97;;;261.47;;
12625;SDS011;6378;42.684;23.372;2023-12-20T00:53:09;516.80;;;247.63;;
12625;SDS011;6378;42.684;23.372;2023-12-20T00:55:35;596.60;;;273.63;;
12625;SDS011;6378;42.684;23.372;2023-12-20T00:58:00;545.90;;;264.50;;
12625;SDS011;6378;42.684;23.372;2023-12-20T01:00:26;529.30;;;260.83;;
12625;SDS011;6378;42.684;23.372;2023-12-20T01:02:52;556.50;;;259.90;;
12625;SDS011;6378;42.684;23.372;2023-12-20T01:05:18;521.40;;;237.67;;
12625;SDS011;6378;42.684;23.372;2023-12-20T01:07:44;513.90;;;228.37;;
12625;SDS011;6378;42.684;23.372;2023-12-20T01:10:09;426.57;;;206.37;;
12625;SDS011;6378;42.684;23.372;2023-12-20T01:12:35;549.73;;;227.50;;
12625;SDS011;6378;42.684;23.372;2023-12-20T01:15:02;482.13;;;211.03;;
12625;SDS011;6378;42.684;23.372;2023-12-20T01:17:27;385.73;;;179.33;;
12625;SDS011;6378;42.684;23.372;2023-12-20T01:19:53;417.87;;;192.07;;
12625;SDS011;6378;42.684;23.372;2023-12-20T01:22:18;359.50;;;177.30;;
12625;SDS011;6378;42.684;23.372;2023-12-20T01:24:44;456.00;;;197.40;;
12625;SDS011;6378;42.684;23.372;2023-12-20T01:27:09;442.53;;;190.20;;
12625;SDS011;6378;42.684;23.372;2023-12-20T01:29:35;499.50;;;203.27;;
12625;SDS011;6378;42.684;23.372;2023-12-20T01:32:00;396.63;;;169.97;;
12625;SDS011;6378;42.684;23.372;2023-12-20T01:34:26;402.80;;;175.13;;
12625;SDS011;6378;42.684;23.372;2023-12-20T01:36:51;364.00;;;160.93;;
12625;SDS011;6378;42.684;23.372;2023-12-20T01:39:17;348.93;;;157.80;;
12625;SDS011;6378;42.684;23.372;2023-12-20T01:41:43;342.97;;;159.17;;
12625;SDS011;6378;42.684;23.372;2023-12-20T01:44:08;346.33;;;159.20;;
12625;SDS011;6378;42.684;23.372;2023-12-20T01:46:34;349.80;;;163.03;;
12625;SDS011;6378;42.684;23.372;2023-12-20T01:48:59;337.50;;;163.80;;
12625;SDS011;6378;42.684;23.372;2023-12-20T01:51:25;307.73;;;157.33;;
12625;SDS011;6378;42.684;23.372;2023-12-20T01:53:52;309.07;;;156.77;;
12625;SDS011;6378;42.684;23.372;2023-12-20T01:56:20;315.33;;;162.87;;
12625;SDS011;6378;42.684;23.372;2023-12-20T01:58:46;312.60;;;157.50;;
12625;SDS011;6378;42.684;23.372;2023-12-20T02:01:13;307.37;;;159.03;;
12625;SDS011;6378;42.684;23.372;2023-12-20T02:03:42;275.57;;;145.07;;
12625;SDS011;6378;42.684;23.372;2023-12-20T02:06:07;295.47;;;148.87;;
12625;SDS011;6378;42.684;23.372;2023-12-20T02:08:34;296.10;;;149.30;;
12625;SDS011;6378;42.684;23.372;2023-12-20T02:11:00;309.83;;;150.07;;
12625;SDS011;6378;42.684;23.372;2023-12-20T02:13:26;306.23;;;150.90;;
12625;SDS011;6378;42.684;23.372;2023-12-20T02:15:52;347.53;;;168.80;;
12625;SDS011;6378;42.684;23.372;2023-12-20T02:18:17;485.73;;;178.40;;
12625;SDS011;6378;42.684;23.372;2023-12-20T02:20:43;287.30;;;141.37;;
12625;SDS011;6378;42.684;23.372;2023-12-20T02:23:09;326.33;;;146.73;;
12625;SDS011;6378;42.684;23.372;2023-12-20T02:25:34;355.83;;;135.37;;
12625;SDS011;6378;42.684;23.372;2023-12-20T02:28:00;534.60;;;161.20;;
12625;SDS011;6378;42.684;23.372;2023-12-20T02:30:26;471.57;;;144.37;;
12625;SDS011;6378;42.684;23.372;2023-12-20T02:32:52;275.73;;;127.57;;
12625;SDS011;6378;42.684;23.372;2023-12-20T02:35:18;266.20;;;123.37;;
12625;SDS011;6378;42.684;23.372;2023-12-20T02:37:44;349.93;;;134.47;;
12625;SDS011;6378;42.684;23.372;2023-12-20T02:40:09;245.33;;;122.10;;
12625;SDS011;6378;42.684;23.372;2023-12-20T02:42:35;248.83;;;123.57;;
12625;SDS011;6378;42.684;23.372;2023-12-20T02:45:01;230.80;;;116.20;;
12625;SDS011;6378;42.684;23.372;2023-12-20T02:47:26;278.87;;;130.17;;
12625;SDS011;6378;42.684;23.372;2023-12-20T02:49:52;340.13;;;139.47;;
12625;SDS011;6378;42.684;23.372;2023-12-20T02:52:18;249.03;;;119.77;;
12625;SDS011;6378;42.684;23.372;2023-12-20T02:54:43;224.23;;;116.17;;
12625;SDS011;6378;42.684;23.372;2023-12-20T02:57:09;235.63;;;118.37;;
12625;SDS011;6378;42.684;23.372;2023-12-20T02:59:34;259.50;;;115.13;;
12625;SDS011;6378;42.684;23.372;2023-12-20T03:02:00;454.17;;;134.13;;
12625;SDS011;6378;42.684;23.372;2023-12-20T03:04:25;245.90;;;113.90;;
12625;SDS011;6378;42.684;23.372;2023-12-20T03:06:51;267.67;;;121.07;;
12625;SDS011;6378;42.684;23.372;2023-12-20T03:09:16;236.27;;;115.37;;
12625;SDS011;6378;42.684;23.372;2023-12-20T03:11:42;234.57;;;115.03;;
12625;SDS011;6378;42.684;23.372;2023-12-20T03:14:07;270.23;;;117.17;;
12625;SDS011;6378;42.684;23.372;2023-12-20T03:16:33;268.93;;;116.33;;
12625;SDS011;6378;42.684;23.372;2023-12-20T03:18:58;346.73;;;119.67;;
12625;SDS011;6378;42.684;23.372;2023-12-20T03:21:24;380.80;;;120.50;;
12625;SDS011;6378;42.684;23.372;2023-12-20T03:23:49;272.20;;;112.57;;
12625;SDS011;6378;42.684;23.372;2023-12-20T03:26:15;340.20;;;109.97;;
12625;SDS011;6378;42.684;23.372;2023-12-20T03:28:40;259.93;;;101.00;;
12625;SDS011;6378;42.684;23.372;2023-12-20T03:31:06;250.70;;;105.07;;
12625;SDS011;6378;42.684;23.372;2023-12-20T03:33:31;286.73;;;99.50;;
12625;SDS011;6378;42.684;23.372;2023-12-20T03:35:57;319.37;;;104.57;;
12625;SDS011;6378;42.684;23.372;2023-12-20T03:38:22;267.80;;;103.57;;
12625;SDS011;6378;42.684;23.372;2023-12-20T03:40:50;334.10;;;111.03;;
12625;SDS011;6378;42.684;23.372;2023-12-20T03:43:16;346.00;;;114.97;;
12625;SDS011;6378;42.684;23.372;2023-12-20T03:45:42;402.30;;;116.50;;
12625;SDS011;6378;42.684;23.372;2023-12-20T03:48:08;237.03;;;94.90;;
12625;SDS011;6378;42.684;23.372;2023-12-20T03:50:34;225.43;;;91.47;;
12625;SDS011;6378;42.684;23.372;2023-12-20T03:53:00;191.57;;;84.63;;
12625;SDS011;6378;42.684;23.372;2023-12-20T03:55:25;515.00;;;130.03;;
12625;SDS011;6378;42.684;23.372;2023-12-20T03:57:51;397.57;;;119.80;;
12625;SDS011;6378;42.684;23.372;2023-12-20T04:00:16;472.60;;;121.27;;
12625;SDS011;6378;42.684;23.372;2023-12-20T04:02:42;311.47;;;112.50;;
12625;SDS011;6378;42.684;23.372;2023-12-20T04:05:08;244.53;;;93.70;;
12625;SDS011;6378;42.684;23.372;2023-12-20T04:07:35;316.67;;;109.47;;
12625;SDS011;6378;42.684;23.372;2023-12-20T04:10:01;375.33;;;123.60;;
12625;SDS011;6378;42.684;23.372;2023-12-20T04:12:30;327.53;;;116.13;;
12625;SDS011;6378;42.684;23.372;2023-12-20T04:14:56;250.27;;;106.70;;
12625;SDS011;6378;42.684;23.372;2023-12-20T04:17:22;302.33;;;117.03;;
12625;SDS011;6378;42.684;23.372;2023-12-20T04:19:51;240.07;;;106.20;;
12625;SDS011;6378;42.684;23.372;2023-12-20T04:22:17;439.80;;;125.63;;
12625;SDS011;6378;42.684;23.372;2023-12-20T04:24:42;305.47;;;108.47;;
12625;SDS011;6378;42.684;23.372;2023-12-20T04:27:08;452.07;;;130.27;;
12625;SDS011;6378;42.684;23.372;2023-12-20T04:29:34;336.83;;;111.13;;
12625;SDS011;6378;42.684;23.372;2023-12-20T04:31:59;299.17;;;105.50;;
12625;SDS011;6378;42.684;23.372;2023-12-20T04:34:25;293.10;;;97.77;;
12625;SDS011;6378;42.684;23.372;2023-12-20T04:36:51;433.43;;;117.20;;
12625;SDS011;6378;42.684;23.372;2023-12-20T04:39:16;291.30;;;89.33;;
12625;SDS011;6378;42.684;23.372;2023-12-20T04:41:42;308.73;;;89.73;;
12625;SDS011;6378;42.684;23.372;2023-12-20T04:44:07;333.27;;;91.33;;
12625;SDS011;6378;42.684;23.372;2023-12-20T04:46:33;354.87;;;99.00;;
12625;SDS011;6378;42.684;23.372;2023-12-20T04:48:58;261.03;;;85.33;;
12625;SDS011;6378;42.684;23.372;2023-12-20T04:51:24;231.43;;;78.07;;
12625;SDS011;6378;42.684;23.372;2023-12-20T04:53:49;293.97;;;87.87;;
12625;SDS011;6378;42.684;23.372;2023-12-20T04:56:15;212.60;;;86.87;;
12625;SDS011;6378;42.684;23.372;2023-12-20T04:58:41;260.03;;;86.47;;
12625;SDS011;6378;42.684;23.372;2023-12-20T05:01:08;380.67;;;97.63;;
12625;SDS011;6378;42.684;23.372;2023-12-20T05:03:34;398.97;;;97.60;;
12625;SDS011;6378;42.684;23.372;2023-12-20T05:06:00;318.70;;;95.10;;
12625;SDS011;6378;42.684;23.372;2023-12-20T05:08:25;330.77;;;90.77;;
12625;SDS011;6378;42.684;23.372;2023-12-20T05:10:52;230.30;;;80.67;;
12625;SDS011;6378;42.684;23.372;2023-12-20T05:13:19;392.87;;;100.77;;
12625;SDS011;6378;42.684;23.372;2023-12-20T05:15:45;247.70;;;78.13;;
12625;SDS011;6378;42.684;23.372;2023-12-20T05:18:10;414.27;;;93.73;;
12625;SDS011;6378;42.684;23.372;2023-12-20T05:20:36;262.77;;;67.63;;
12625;SDS011;6378;42.684;23.372;2023-12-20T05:23:02;313.37;;;82.77;;
12625;SDS011;6378;42.684;23.372;2023-12-20T05:25:27;238.63;;;69.67;;
12625;SDS011;6378;42.684;23.372;2023-12-20T05:27:53;197.60;;;61.43;;
12625;SDS011;6378;42.684;23.372;2023-12-20T05:30:18;461.30;;;106.77;;
12625;SDS011;6378;42.684;23.372;2023-12-20T05:32:44;374.40;;;97.07;;
12625;SDS011;6378;42.684;23.372;2023-12-20T05:35:09;201.97;;;79.27;;
12625;SDS011;6378;42.684;23.372;2023-12-20T05:37:35;201.93;;;73.37;;
12625;SDS011;6378;42.684;23.372;2023-12-20T05:40:00;250.00;;;81.73;;
12625;SDS011;6378;42.684;23.372;2023-12-20T05:42:26;193.07;;;75.20;;
12625;SDS011;6378;42.684;23.372;2023-12-20T05:44:51;213.13;;;84.63;;
12625;SDS011;6378;42.684;23.372;2023-12-20T05:47:17;198.90;;;82.77;;
12625;SDS011;6378;42.684;23.372;2023-12-20T05:49:43;238.20;;;84.40;;
12625;SDS011;6378;42.684;23.372;2023-12-20T05:52:09;369.63;;;93.20;;
12625;SDS011;6378;42.684;23.372;2023-12-20T05:54:34;219.87;;;75.87;;
12625;SDS011;6378;42.684;23.372;2023-12-20T05:57:00;553.40;;;99.97;;
12625;SDS011;6378;42.684;23.372;2023-12-20T05:59:25;322.80;;;89.47;;
12625;SDS011;6378;42.684;23.372;2023-12-20T06:01:51;276.30;;;75.90;;
12625;SDS011;6378;42.684;23.372;2023-12-20T06:04:16;212.80;;;67.13;;
12625;SDS011;6378;42.684;23.372;2023-12-20T06:06:42;174.40;;;67.93;;
12625;SDS011;6378;42.684;23.372;2023-12-20T06:09:08;241.37;;;72.07;;
12625;SDS011;6378;42.684;23.372;2023-12-20T06:11:34;348.50;;;71.73;;
12625;SDS011;6378;42.684;23.372;2023-12-20T06:13:59;308.63;;;75.33;;
12625;SDS011;6378;42.684;23.372;2023-12-20T06:16:25;238.00;;;65.50;;
12625;SDS011;6378;42.684;23.372;2023-12-20T06:18:50;215.50;;;64.63;;
12625;SDS011;6378;42.684;23.372;2023-12-20T06:21:16;361.00;;;69.03;;
12625;SDS011;6378;42.684;23.372;2023-12-20T06:23:41;243.17;;;66.80;;
12625;SDS011;6378;42.684;23.372;2023-12-20T06:26:07;176.77;;;55.40;;
12625;SDS011;6378;42.684;23.372;2023-12-20T06:28:32;485.87;;;86.73;;
12625;SDS011;6378;42.684;23.372;2023-12-20T06:30:58;395.27;;;68.30;;
12625;SDS011;6378;42.684;23.372;2023-12-20T06:33:24;504.50;;;78.07;;
12625;SDS011;6378;42.684;23.372;2023-12-20T06:35:49;320.30;;;65.13;;
12625;SDS011;6378;42.684;23.372;2023-12-20T06:38:15;774.90;;;104.27;;
12625;SDS011;6378;42.684;23.372;2023-12-20T06:40:40;283.13;;;58.07;;
12625;SDS011;6378;42.684;23.372;2023-12-20T06:43:07;167.63;;;49.93;;
12625;SDS011;6378;42.684;23.372;2023-12-20T06:45:33;378.43;;;63.37;;
12625;SDS011;6378;42.684;23.372;2023-12-20T06:47:58;253.70;;;58.43;;
12625;SDS011;6378;42.684;23.372;2023-12-20T06:50:24;259.57;;;56.60;;
12625;SDS011;6378;42.684;23.372;2023-12-20T06:52:49;124.33;;;45.70;;
12625;SDS011;6378;42.684;23.372;2023-12-20T06:55:15;217.20;;;53.17;;
12625;SDS011;6378;42.684;23.372;2023-12-20T06:57:40;140.03;;;48.27;;
12625;SDS011;6378;42.684;23.372;2023-12-20T07:00:06;104.73;;;42.90;;
12625;SDS011;6378;42.684;23.372;2023-12-20T07:02:33;255.77;;;74.63;;
12625;SDS011;6378;42.684;23.372;2023-12-20T07:04:59;113.73;;;46.30;;
12625;SDS011;6378;42.684;23.372;2023-12-20T07:07:25;222.43;;;57.30;;
12625;SDS011;6378;42.684;23.372;2023-12-20T07:09:51;95.87;;;44.93;;
12625;SDS011;6378;42.684;23.372;2023-12-20T07:12:17;110.20;;;44.47;;
12625;SDS011;6378;42.684;23.372;2023-12-20T07:14:44;123.07;;;46.43;;
12625;SDS011;6378;42.684;23.372;2023-12-20T07:17:10;114.60;;;46.60;;
12625;SDS011;6378;42.684;23.372;2023-12-20T07:19:38;104.83;;;44.20;;
12625;SDS011;6378;42.684;23.372;2023-12-20T07:22:05;111.47;;;44.93;;
12625;SDS011;6378;42.684;23.372;2023-12-20T07:24:31;116.67;;;45.27;;
12625;SDS011;6378;42.684;23.372;2023-12-20T07:26:57;147.93;;;51.30;;
12625;SDS011;6378;42.684;23.372;2023-12-20T07:29:22;105.43;;;46.17;;
12625;SDS011;6378;42.684;23.372;2023-12-20T07:31:48;145.50;;;50.93;;
12625;SDS011;6378;42.684;23.372;2023-12-20T07:34:13;112.63;;;45.60;;
12625;SDS011;6378;42.684;23.372;2023-12-20T07:36:39;84.10;;;43.03;;
12625;SDS011;6378;42.684;23.372;2023-12-20T07:39:04;98.97;;;43.67;;
12625;SDS011;6378;42.684;23.372;2023-12-20T07:41:30;80.87;;;43.10;;
12625;SDS011;6378;42.684;23.372;2023-12-20T07:43:55;85.23;;;42.07;;
12625;SDS011;6378;42.684;23.372;2023-12-20T07:46:21;136.53;;;52.87;;
12625;SDS011;6378;42.684;23.372;2023-12-20T07:48:48;185.57;;;67.70;;
12625;SDS011;6378;42.684;23.372;2023-12-20T07:51:14;362.97;;;100.03;;
12625;SDS011;6378;42.684;23.372;2023-12-20T07:53:39;520.47;;;118.73;;
12625;SDS011;6378;42.684;23.372;2023-12-20T07:56:13;355.80;;;105.70;;
12625;SDS011;6378;42.684;23.372;2023-12-20T07:58:42;204.37;;;81.97;;
12625;SDS011;6378;42.684;23.372;2023-12-20T08:01:08;265.83;;;98.47;;
12625;SDS011;6378;42.684;23.372;2023-12-20T08:03:33;190.17;;;80.27;;
12625;SDS011;6378;42.684;23.372;2023-12-20T08:05:59;348.60;;;99.47;;
12625;SDS011;6378;42.684;23.372;2023-12-20T08:08:24;358.83;;;109.33;;
12625;SDS011;6378;42.684;23.372;2023-12-20T08:10:50;287.93;;;105.07;;
12625;SDS011;6378;42.684;23.372;2023-12-20T08:13:15;370.80;;;119.20;;
12625;SDS011;6378;42.684;23.372;2023-12-20T08:15:41;447.80;;;123.70;;
12625;SDS011;6378;42.684;23.372;2023-12-20T08:18:07;413.90;;;99.80;;
12625;SDS011;6378;42.684;23.372;2023-12-20T08:20:32;418.17;;;101.67;;
12625;SDS011;6378;42.684;23.372;2023-12-20T08:22:58;313.20;;;90.50;;
12625;SDS011;6378;42.684;23.372;2023-12-20T08:25:23;249.23;;;85.27;;
12625;SDS011;6378;42.684;23.372;2023-12-20T08:27:49;206.60;;;68.80;;
12625;SDS011;6378;42.684;23.372;2023-12-20T08:30:14;280.00;;;77.27;;
12625;SDS011;6378;42.684;23.372;2023-12-20T08:32:42;169.80;;;58.20;;
12625;SDS011;6378;42.684;23.372;2023-12-20T08:35:07;436.23;;;80.20;;
12625;SDS011;6378;42.684;23.372;2023-12-20T08:37:33;263.10;;;62.50;;
12625;SDS011;6378;42.684;23.372;2023-12-20T08:39:59;157.23;;;55.40;;
12625;SDS011;6378;42.684;23.372;2023-12-20T08:42:24;176.63;;;54.57;;
12625;SDS011;6378;42.684;23.372;2023-12-20T08:44:55;212.97;;;58.90;;
12625;SDS011;6378;42.684;23.372;2023-12-20T08:47:21;287.70;;;62.20;;
12625;SDS011;6378;42.684;23.372;2023-12-20T08:49:47;219.73;;;58.80;;
12625;SDS011;6378;42.684;23.372;2023-12-20T08:52:12;192.03;;;57.00;;
12625;SDS011;6378;42.684;23.372;2023-12-20T08:54:38;281.57;;;68.17;;
12625;SDS011;6378;42.684;23.372;2023-12-20T08:57:03;207.23;;;57.73;;
12625;SDS011;6378;42.684;23.372;2023-12-20T08:59:31;202.10;;;55.70;;
12625;SDS011;6378;42.684;23.372;2023-12-20T09:01:57;343.17;;;71.50;;
12625;SDS011;6378;42.684;23.372;2023-12-20T09:04:23;198.60;;;60.10;;
12625;SDS011;6378;42.684;23.372;2023-12-20T09:06:48;291.67;;;69.60;;
12625;SDS011;6378;42.684;23.372;2023-12-20T09:09:14;150.27;;;56.73;;
12625;SDS011;6378;42.684;23.372;2023-12-20T09:11:39;179.57;;;61.43;;
12625;SDS011;6378;42.684;23.372;2023-12-20T09:14:05;290.97;;;70.47;;
12625;SDS011;6378;42.684;23.372;2023-12-20T09:16:31;171.47;;;59.57;;
12625;SDS011;6378;42.684;23.372;2023-12-20T09:18:59;245.80;;;63.20;;
12625;SDS011;6378;42.684;23.372;2023-12-20T09:21:24;746.90;;;107.77;;
12625;SDS011;6378;42.684;23.372;2023-12-20T09:23:50;289.63;;;67.70;;
12625;SDS011;6378;42.684;23.372;2023-12-20T09:26:16;263.53;;;75.70;;
12625;SDS011;6378;42.684;23.372;2023-12-20T09:28:41;194.17;;;66.83;;
12625;SDS011;6378;42.684;23.372;2023-12-20T09:31:07;173.07;;;58.20;;
12625;SDS011;6378;42.684;23.372;2023-12-20T09:33:33;348.57;;;75.93;;
12625;SDS011;6378;42.684;23.372;2023-12-20T09:35:59;211.03;;;68.47;;
12625;SDS011;6378;42.684;23.372;2023-12-20T09:38:25;184.30;;;63.10;;
12625;SDS011;6378;42.684;23.372;2023-12-20T09:40:50;208.77;;;71.97;;
12625;SDS011;6378;42.684;23.372;2023-12-20T09:43:17;259.67;;;68.10;;
12625;SDS011;6378;42.684;23.372;2023-12-20T09:45:45;252.43;;;62.30;;
12625;SDS011;6378;42.684;23.372;2023-12-20T09:48:12;159.43;;;52.97;;
12625;SDS011;6378;42.684;23.372;2023-12-20T09:50:39;147.30;;;55.00;;
12625;SDS011;6378;42.684;23.372;2023-12-20T09:53:05;168.07;;;54.73;;
12625;SDS011;6378;42.684;23.372;2023-12-20T09:55:35;172.23;;;51.80;;
12625;SDS011;6378;42.684;23.372;2023-12-20T09:58:01;147.30;;;51.33;;
12625;SDS011;6378;42.684;23.372;2023-12-20T10:00:27;146.27;;;52.20;;
12625;SDS011;6378;42.684;23.372;2023-12-20T10:03:01;198.83;;;55.87;;
12625;SDS011;6378;42.684;23.372;2023-12-20T10:05:29;148.87;;;57.43;;
12625;SDS011;6378;42.684;23.372;2023-12-20T10:07:59;131.80;;;52.67;;
12625;SDS011;6378;42.684;23.372;2023-12-20T10:10:26;135.50;;;56.10;;
12625;SDS011;6378;42.684;23.372;2023-12-20T10:13:02;130.93;;;55.83;;
12625;SDS011;6378;42.684;23.372;2023-12-20T10:15:28;136.63;;;56.13;;
12625;SDS011;6378;42.684;23.372;2023-12-20T10:17:53;124.00;;;54.47;;
12625;SDS011;6378;42.684;23.372;2023-12-20T10:20:19;138.67;;;56.47;;
12625;SDS011;6378;42.684;23.372;2023-12-20T10:22:45;143.07;;;56.77;;
12625;SDS011;6378;42.684;23.372;2023-12-20T10:25:11;142.27;;;56.27;;
12625;SDS011;6378;42.684;23.372;2023-12-20T10:27:37;136.97;;;58.73;;
12625;SDS011;6378;42.684;23.372;2023-12-20T10:30:02;145.23;;;61.10;;
12625;SDS011;6378;42.684;23.372;2023-12-20T10:32:29;137.10;;;59.00;;
12625;SDS011;6378;42.684;23.372;2023-12-20T10:34:55;133.70;;;58.27;;
12625;SDS011;6378;42.684;23.372;2023-12-20T10:37:21;141.53;;;56.60;;
12625;SDS011;6378;42.684;23.372;2023-12-20T10:39:51;127.80;;;56.03;;
12625;SDS011;6378;42.684;23.372;2023-12-20T10:42:20;147.43;;;62.70;;
12625;SDS011;6378;42.684;23.372;2023-12-20T10:44:53;144.83;;;66.90;;
12625;SDS011;6378;42.684;23.372;2023-12-20T10:47:19;140.83;;;63.47;;
12625;SDS011;6378;42.684;23.372;2023-12-20T10:49:45;152.13;;;67.60;;
12625;SDS011;6378;42.684;23.372;2023-12-20T10:52:12;155.80;;;68.23;;
12625;SDS011;6378;42.684;23.372;2023-12-20T10:54:41;150.60;;;70.13;;
12625;SDS011;6378;42.684;23.372;2023-12-20T10:57:07;151.50;;;66.80;;
12625;SDS011;6378;42.684;23.372;2023-12-20T10:59:33;131.93;;;61.30;;
12625;SDS011;6378;42.684;23.372;2023-12-20T11:02:02;130.43;;;59.63;;
12625;SDS011;6378;42.684;23.372;2023-12-20T11:04:49;126.50;;;57.20;;
12625;SDS011;6378;42.684;23.372;2023-12-20T11:15:35;106.07;;;52.60;;
12625;SDS011;6378;42.684;23.372;2023-12-20T11:18:04;115.97;;;55.10;;
12625;SDS011;6378;42.684;23.372;2023-12-20T11:20:38;104.40;;;51.40;;
12625;SDS011;6378;42.684;23.372;2023-12-20T11:23:05;108.03;;;54.40;;
12625;SDS011;6378;42.684;23.372;2023-12-20T11:28:24;115.97;;;55.33;;
12625;SDS011;6378;42.684;23.372;2023-12-20T11:33:23;101.97;;;52.07;;
12625;SDS011;6378;42.684;23.372;2023-12-20T11:35:51;120.80;;;58.50;;
12625;SDS011;6378;42.684;23.372;2023-12-20T11:38:16;122.93;;;57.80;;
12625;SDS011;6378;42.684;23.372;2023-12-20T11:40:44;124.80;;;57.63;;
12625;SDS011;6378;42.684;23.372;2023-12-20T11:43:28;119.70;;;55.00;;
12625;SDS011;6378;42.684;23.372;2023-12-20T11:46:06;121.83;;;57.63;;
12625;SDS011;6378;42.684;23.372;2023-12-20T11:48:34;127.97;;;58.87;;
12625;SDS011;6378;42.684;23.372;2023-12-20T11:51:02;117.80;;;56.07;;
12625;SDS011;6378;42.684;23.372;2023-12-20T11:53:29;123.10;;;56.40;;
12625;SDS011;6378;42.684;23.372;2023-12-20T11:55:56;130.93;;;58.63;;
12625;SDS011;6378;42.684;23.372;2023-12-20T11:58:21;127.87;;;57.23;;
12625;SDS011;6378;42.684;23.372;2023-12-20T12:00:48;137.43;;;58.50;;
12625;SDS011;6378;42.684;23.372;2023-12-20T12:03:14;154.40;;;61.13;;
12625;SDS011;6378;42.684;23.372;2023-12-20T12:05:40;141.13;;;59.10;;
12625;SDS011;6378;42.684;23.372;2023-12-20T12:08:06;137.97;;;58.53;;
12625;SDS011;6378;42.684;23.372;2023-12-20T12:10:32;142.07;;;61.17;;
12625;SDS011;6378;42.684;23.372;2023-12-20T12:12:58;161.87;;;59.27;;
12625;SDS011;6378;42.684;23.372;2023-12-20T12:15:24;136.80;;;59.70;;
12625;SDS011;6378;42.684;23.372;2023-12-20T12:17:54;148.50;;;59.50;;
12625;SDS011;6378;42.684;23.372;2023-12-20T12:20:21;134.00;;;60.07;;
12625;SDS011;6378;42.684;23.372;2023-12-20T12:22:57;137.20;;;59.43;;
12625;SDS011;6378;42.684;23.372;2023-12-20T12:25:31;135.17;;;56.93;;
12625;SDS011;6378;42.684;23.372;2023-12-20T12:27:57;130.53;;;57.80;;
12625;SDS011;6378;42.684;23.372;2023-12-20T12:30:23;136.27;;;59.73;;
12625;SDS011;6378;42.684;23.372;2023-12-20T12:32:50;143.77;;;60.90;;
12625;SDS011;6378;42.684;23.372;2023-12-20T12:35:16;159.40;;;63.07;;
12625;SDS011;6378;42.684;23.372;2023-12-20T12:37:42;133.53;;;58.77;;
12625;SDS011;6378;42.684;23.372;2023-12-20T12:40:12;153.52;;;65.00;;
12625;SDS011;6378;42.684;23.372;2023-12-20T12:42:38;148.17;;;64.73;;
12625;SDS011;6378;42.684;23.372;2023-12-20T12:45:05;144.90;;;62.57;;
12625;SDS011;6378;42.684;23.372;2023-12-20T12:47:31;193.47;;;64.17;;
12625;SDS011;6378;42.684;23.372;2023-12-20T12:49:56;145.73;;;65.90;;
12625;SDS011;6378;42.684;23.372;2023-12-20T12:52:22;141.20;;;64.80;;
12625;SDS011;6378;42.684;23.372;2023-12-20T12:54:48;151.40;;;63.67;;
12625;SDS011;6378;42.684;23.372;2023-12-20T12:57:14;150.23;;;65.93;;
12625;SDS011;6378;42.684;23.372;2023-12-20T12:59:41;172.27;;;72.17;;
12625;SDS011;6378;42.684;23.372;2023-12-20T13:02:07;182.10;;;74.53;;
12625;SDS011;6378;42.684;23.372;2023-12-20T13:04:33;169.40;;;65.97;;
12625;SDS011;6378;42.684;23.372;2023-12-20T13:06:59;161.37;;;64.53;;
12625;SDS011;6378;42.684;23.372;2023-12-20T13:09:24;191.73;;;68.43;;
12625;SDS011;6378;42.684;23.372;2023-12-20T13:11:50;159.87;;;61.70;;
12625;SDS011;6378;42.684;23.372;2023-12-20T13:14:15;164.60;;;61.43;;
12625;SDS011;6378;42.684;23.372;2023-12-20T13:16:41;146.10;;;54.17;;
12625;SDS011;6378;42.684;23.372;2023-12-20T13:19:07;160.87;;;55.20;;
12625;SDS011;6378;42.684;23.372;2023-12-20T13:21:34;446.10;;;70.27;;
12625;SDS011;6378;42.684;23.372;2023-12-20T13:24:00;157.37;;;55.47;;
12625;SDS011;6378;42.684;23.372;2023-12-20T13:26:26;166.13;;;58.43;;
12625;SDS011;6378;42.684;23.372;2023-12-20T13:28:51;224.13;;;58.43;;
12625;SDS011;6378;42.684;23.372;2023-12-20T13:31:17;278.47;;;53.40;;
12625;SDS011;6378;42.684;23.372;2023-12-20T13:33:42;177.13;;;54.10;;
12625;SDS011;6378;42.684;23.372;2023-12-20T13:36:08;298.50;;;59.77;;
12625;SDS011;6378;42.684;23.372;2023-12-20T13:38:33;349.00;;;58.30;;
12625;SDS011;6378;42.684;23.372;2023-12-20T13:40:59;128.23;;;49.87;;
12625;SDS011;6378;42.684;23.372;2023-12-20T13:43:25;159.23;;;52.60;;
12625;SDS011;6378;42.684;23.372;2023-12-20T13:45:50;156.37;;;55.20;;
12625;SDS011;6378;42.684;23.372;2023-12-20T13:48:16;145.33;;;56.03;;
12625;SDS011;6378;42.684;23.372;2023-12-20T13:50:41;179.13;;;62.20;;
12625;SDS011;6378;42.684;23.372;2023-12-20T13:53:07;205.73;;;69.20;;
12625;SDS011;6378;42.684;23.372;2023-12-20T13:55:32;291.40;;;74.53;;
12625;SDS011;6378;42.684;23.372;2023-12-20T13:57:58;224.10;;;70.70;;
12625;SDS011;6378;42.684;23.372;2023-12-20T14:00:24;195.27;;;67.93;;
12625;SDS011;6378;42.684;23.372;2023-12-20T14:02:50;174.77;;;64.63;;
12625;SDS011;6378;42.684;23.372;2023-12-20T14:05:16;198.37;;;69.07;;
12625;SDS011;6378;42.684;23.372;2023-12-20T14:07:45;183.53;;;61.37;;
12625;SDS011;6378;42.684;23.372;2023-12-20T14:10:11;175.57;;;63.90;;
12625;SDS011;6378;42.684;23.372;2023-12-20T14:12:38;173.33;;;65.00;;